sensor_id;sensor_type;location;lat;lon;timestamp;pressure;altitude;pressure_sealevel;temperature;humidity
58367;BME280;57745;42.524;12.052;2023-03-22T00:01:43;96417.41;;;15.89;50.41
58367;BME280;57745;42.524;12.052;2023-03-22T00:04:10;96415.56;;;15.86;50.80
58367;BME280;57745;42.524;12.052;2023-03-22T00:06:36;96416.50;;;15.83;50.64
58367;BME280;57745;42.524;12.052;2023-03-22T00:09:01;96415.88;;;15.88;50.99
58367;BME280;57745;42.524;12.052;2023-03-22T00:11:26;96433.50;;;15.87;51.00
58367;BME280;57745;42.524;12.052;2023-03-22T00:13:52;96424.25;;;15.85;51.16
58367;BME280;57745;42.524;12.052;2023-03-22T00:16:18;96418.28;;;15.95;51.23
58367;BME280;57745;42.524;12.052;2023-03-22T00:18:44;96420.19;;;15.71;51.81
58367;BME280;57745;42.524;12.052;2023-03-22T00:21:14;96412.38;;;15.88;51.26
58367;BME280;57745;42.524;12.052;2023-03-22T00:23:40;96411.78;;;15.84;51.53
58367;BME280;57745;42.524;12.052;2023-03-22T00:26:06;96419.88;;;15.78;51.71
58367;BME280;57745;42.524;12.052;2023-03-22T00:28:32;96419.81;;;15.87;51.54
58367;BME280;57745;42.524;12.052;2023-03-22T00:31:00;96414.44;;;15.69;51.98
58367;BME280;57745;42.524;12.052;2023-03-22T00:33:27;96422.00;;;15.74;51.85
58367;BME280;57745;42.524;12.052;2023-03-22T00:35:58;96420.44;;;15.91;51.41
58367;BME280;57745;42.524;12.052;2023-03-22T00:38:25;96412.72;;;15.80;51.70
58367;BME280;57745;42.524;12.052;2023-03-22T00:40:50;96407.38;;;15.86;51.49
58367;BME280;57745;42.524;12.052;2023-03-22T00:43:16;96408.28;;;15.92;51.36
58367;BME280;57745;42.524;12.052;2023-03-22T00:45:41;96411.47;;;15.91;51.47
58367;BME280;57745;42.524;12.052;2023-03-22T00:48:08;96401.28;;;15.91;51.41
58367;BME280;57745;42.524;12.052;2023-03-22T00:50:35;96404.53;;;15.80;51.55
58367;BME280;57745;42.524;12.052;2023-03-22T00:53:01;96402.81;;;15.92;51.55
58367;BME280;57745;42.524;12.052;2023-03-22T00:55:27;96399.44;;;15.97;51.22
58367;BME280;57745;42.524;12.052;2023-03-22T00:57:53;96394.97;;;16.09;50.67
58367;BME280;57745;42.524;12.052;2023-03-22T01:00:18;96398.56;;;15.91;50.93
58367;BME280;57745;42.524;12.052;2023-03-22T01:02:44;96398.84;;;15.93;51.02
58367;BME280;57745;42.524;12.052;2023-03-22T01:05:10;96398.41;;;15.86;50.90
58367;BME280;57745;42.524;12.052;2023-03-22T01:07:43;96387.66;;;15.82;51.18
58367;BME280;57745;42.524;12.052;2023-03-22T01:10:10;96392.75;;;15.98;51.03
58367;BME280;57745;42.524;12.052;2023-03-22T01:12:37;96380.81;;;16.10;50.78
58367;BME280;57745;42.524;12.052;2023-03-22T01:15:06;96380.03;;;16.19;50.38
58367;BME280;57745;42.524;12.052;2023-03-22T01:17:32;96385.00;;;15.97;50.92
58367;BME280;57745;42.524;12.052;2023-03-22T01:19:57;96394.41;;;16.05;50.43
58367;BME280;57745;42.524;12.052;2023-03-22T01:22:23;96387.97;;;16.08;50.36
58367;BME280;57745;42.524;12.052;2023-03-22T01:24:49;96384.78;;;16.09;50.48
58367;BME280;57745;42.524;12.052;2023-03-22T01:27:15;96387.56;;;16.00;50.55
58367;BME280;57745;42.524;12.052;2023-03-22T01:29:41;96386.94;;;16.05;50.36
58367;BME280;57745;42.524;12.052;2023-03-22T01:32:06;96385.78;;;15.88;50.94
58367;BME280;57745;42.524;12.052;2023-03-22T01:34:32;96386.94;;;16.05;50.26
58367;BME280;57745;42.524;12.052;2023-03-22T01:36:57;96380.63;;;15.90;50.41
58367;BME280;57745;42.524;12.052;2023-03-22T01:39:23;96380.31;;;15.88;50.50
58367;BME280;57745;42.524;12.052;2023-03-22T01:41:50;96392.69;;;16.07;49.86
58367;BME280;57745;42.524;12.052;2023-03-22T01:44:18;96390.31;;;16.00;49.93
58367;BME280;57745;42.524;12.052;2023-03-22T01:46:47;96389.78;;;15.78;50.38
58367;BME280;57745;42.524;12.052;2023-03-22T01:49:15;96398.59;;;15.82;50.19
58367;BME280;57745;42.524;12.052;2023-03-22T01:51:42;96393.03;;;16.00;49.85
58367;BME280;57745;42.524;12.052;2023-03-22T01:54:16;96396.31;;;15.71;50.89
58367;BME280;57745;42.524;12.052;2023-03-22T01:56:42;96389.69;;;15.96;50.01
58367;BME280;57745;42.524;12.052;2023-03-22T01:59:11;96382.75;;;15.86;50.14
58367;BME280;57745;42.524;12.052;2023-03-22T02:01:39;96380.47;;;15.85;50.19
58367;BME280;57745;42.524;12.052;2023-03-22T02:04:10;96383.41;;;15.72;50.21
58367;BME280;57745;42.524;12.052;2023-03-22T02:06:39;96380.81;;;15.77;50.50
58367;BME280;57745;42.524;12.052;2023-03-22T02:09:10;96385.88;;;15.70;50.50
58367;BME280;57745;42.524;12.052;2023-03-22T02:11:39;96380.06;;;15.77;50.39
58367;BME280;57745;42.524;12.052;2023-03-22T02:17:08;96387.31;;;15.89;50.32
58367;BME280;57745;42.524;12.052;2023-03-22T02:20:06;96376.03;;;15.96;49.61
58367;BME280;57745;42.524;12.052;2023-03-22T02:23:01;96372.63;;;15.77;50.61
58367;BME280;57745;42.524;12.052;2023-03-22T02:51:10;96379.97;;;15.95;50.61
58367;BME280;57745;42.524;12.052;2023-03-22T02:53:49;96379.41;;;15.91;50.55
58367;BME280;57745;42.524;12.052;2023-03-22T02:56:23;96380.16;;;15.92;50.38
58367;BME280;57745;42.524;12.052;2023-03-22T02:58:52;96373.34;;;15.87;50.68
58367;BME280;57745;42.524;12.052;2023-03-22T03:01:30;96372.59;;;15.87;50.53
58367;BME280;57745;42.524;12.052;2023-03-22T03:04:02;96375.47;;;15.83;51.03
58367;BME280;57745;42.524;12.052;2023-03-22T03:06:33;96372.25;;;15.94;50.43
58367;BME280;57745;42.524;12.052;2023-03-22T03:09:03;96372.75;;;15.83;50.76
58367;BME280;57745;42.524;12.052;2023-03-22T03:11:29;96372.94;;;15.79;50.43
58367;BME280;57745;42.524;12.052;2023-03-22T03:13:56;96379.16;;;15.80;50.85
58367;BME280;57745;42.524;12.052;2023-03-22T03:16:25;96378.50;;;15.94;50.41
58367;BME280;57745;42.524;12.052;2023-03-22T03:19:13;96377.50;;;15.73;50.93
58367;BME280;57745;42.524;12.052;2023-03-22T03:22:00;96368.25;;;16.04;50.12
58367;BME280;57745;42.524;12.052;2023-03-22T03:24:48;96377.53;;;15.97;50.39
58367;BME280;57745;42.524;12.052;2023-03-22T03:27:22;96373.50;;;15.84;50.66
58367;BME280;57745;42.524;12.052;2023-03-22T03:30:02;96377.13;;;15.90;50.68
58367;BME280;57745;42.524;12.052;2023-03-22T03:32:37;96376.56;;;15.76;51.13
58367;BME280;57745;42.524;12.052;2023-03-22T03:37:53;96381.44;;;15.72;51.45
58367;BME280;57745;42.524;12.052;2023-03-22T03:40:30;96384.34;;;15.69;51.23
58367;BME280;57745;42.524;12.052;2023-03-22T03:42:59;96384.09;;;15.39;51.76
58367;BME280;57745;42.524;12.052;2023-03-22T03:45:26;96380.28;;;15.55;51.55
58367;BME280;57745;42.524;12.052;2023-03-22T03:47:56;96377.06;;;15.66;51.02
58367;BME280;57745;42.524;12.052;2023-03-22T03:50:23;96372.31;;;15.75;50.47
58367;BME280;57745;42.524;12.052;2023-03-22T03:52:51;96379.50;;;15.45;51.60
58367;BME280;57745;42.524;12.052;2023-03-22T03:55:19;96375.84;;;15.67;51.18
58367;BME280;57745;42.524;12.052;2023-03-22T03:57:45;96376.78;;;15.64;50.65
58367;BME280;57745;42.524;12.052;2023-03-22T04:00:11;96379.53;;;15.55;51.04
58367;BME280;57745;42.524;12.052;2023-03-22T04:02:40;96378.91;;;15.51;51.12
58367;BME280;57745;42.524;12.052;2023-03-22T04:05:06;96378.00;;;15.54;51.47
58367;BME280;57745;42.524;12.052;2023-03-22T04:07:32;96383.34;;;15.39;51.89
58367;BME280;57745;42.524;12.052;2023-03-22T04:09:58;96380.13;;;15.59;51.33
58367;BME280;57745;42.524;12.052;2023-03-22T04:12:23;96378.75;;;15.63;51.02
58367;BME280;57745;42.524;12.052;2023-03-22T04:14:49;96387.69;;;15.64;50.91
58367;BME280;57745;42.524;12.052;2023-03-22T04:17:14;96388.31;;;15.50;51.32
58367;BME280;57745;42.524;12.052;2023-03-22T04:19:40;96387.28;;;15.56;51.19
58367;BME280;57745;42.524;12.052;2023-03-22T04:22:06;96386.34;;;15.50;51.79
58367;BME280;57745;42.524;12.052;2023-03-22T04:24:42;96382.03;;;15.76;51.44
58367;BME280;57745;42.524;12.052;2023-03-22T04:27:08;96380.41;;;15.70;51.45
58367;BME280;57745;42.524;12.052;2023-03-22T04:29:34;96379.84;;;15.38;52.51
58367;BME280;57745;42.524;12.052;2023-03-22T04:32:03;96384.38;;;15.60;51.85
58367;BME280;57745;42.524;12.052;2023-03-22T04:34:29;96377.25;;;15.44;51.86
58367;BME280;57745;42.524;12.052;2023-03-22T04:36:56;96382.56;;;15.38;52.21
58367;BME280;57745;42.524;12.052;2023-03-22T04:39:22;96385.19;;;15.33;52.82
58367;BME280;57745;42.524;12.052;2023-03-22T04:41:47;96381.06;;;15.37;52.56
58367;BME280;57745;42.524;12.052;2023-03-22T04:44:13;96380.63;;;15.30;52.77
58367;BME280;57745;42.524;12.052;2023-03-22T04:46:38;96384.41;;;15.23;52.87
58367;BME280;57745;42.524;12.052;2023-03-22T04:49:04;96382.56;;;15.38;52.40
58367;BME280;57745;42.524;12.052;2023-03-22T04:51:31;96386.53;;;15.37;52.79
58367;BME280;57745;42.524;12.052;2023-03-22T04:53:57;96382.03;;;15.07;53.87
58367;BME280;57745;42.524;12.052;2023-03-22T04:56:23;96380.03;;;15.26;53.36
58367;BME280;57745;42.524;12.052;2023-03-22T04:58:49;96393.84;;;15.31;53.36
58367;BME280;57745;42.524;12.052;2023-03-22T05:01:16;96389.13;;;15.23;53.61
58367;BME280;57745;42.524;12.052;2023-03-22T05:03:42;96390.50;;;15.18;54.09
58367;BME280;57745;42.524;12.052;2023-03-22T05:06:10;96392.66;;;15.05;54.71
58367;BME280;57745;42.524;12.052;2023-03-22T05:08:36;96389.75;;;15.18;54.69
58367;BME280;57745;42.524;12.052;2023-03-22T05:11:08;96385.94;;;15.15;54.30
58367;BME280;57745;42.524;12.052;2023-03-22T05:13:34;96393.84;;;15.31;53.72
58367;BME280;57745;42.524;12.052;2023-03-22T05:16:02;96394.28;;;15.30;53.68
58367;BME280;57745;42.524;12.052;2023-03-22T05:18:29;96385.34;;;15.20;53.69
58367;BME280;57745;42.524;12.052;2023-03-22T05:20:57;96393.09;;;15.13;53.98
58367;BME280;57745;42.524;12.052;2023-03-22T05:23:22;96398.72;;;15.00;54.80
58367;BME280;57745;42.524;12.052;2023-03-22T05:25:49;96392.31;;;15.12;54.56
58367;BME280;57745;42.524;12.052;2023-03-22T05:28:17;96405.69;;;15.19;54.77
58367;BME280;57745;42.524;12.052;2023-03-22T05:30:44;96406.75;;;15.03;55.37
58367;BME280;57745;42.524;12.052;2023-03-22T05:33:10;96404.16;;;15.18;55.11
58367;BME280;57745;42.524;12.052;2023-03-22T05:35:39;96411.91;;;15.10;55.49
58367;BME280;57745;42.524;12.052;2023-03-22T05:38:06;96412.94;;;15.22;54.98
58367;BME280;57745;42.524;12.052;2023-03-22T05:40:31;96419.78;;;15.45;54.45
58367;BME280;57745;42.524;12.052;2023-03-22T05:42:57;96417.38;;;15.10;55.50
58367;BME280;57745;42.524;12.052;2023-03-22T05:45:23;96420.88;;;15.20;55.28
58367;BME280;57745;42.524;12.052;2023-03-22T05:47:49;96425.38;;;15.41;55.00
58367;BME280;57745;42.524;12.052;2023-03-22T05:50:16;96425.69;;;15.34;55.40
58367;BME280;57745;42.524;12.052;2023-03-22T05:52:43;96427.22;;;15.35;55.52
58367;BME280;57745;42.524;12.052;2023-03-22T05:55:10;96422.69;;;15.14;56.27
58367;BME280;57745;42.524;12.052;2023-03-22T05:57:37;96412.31;;;15.36;55.52
58367;BME280;57745;42.524;12.052;2023-03-22T06:00:04;96415.38;;;15.29;55.84
58367;BME280;57745;42.524;12.052;2023-03-22T06:02:31;96413.56;;;15.44;55.46
58367;BME280;57745;42.524;12.052;2023-03-22T06:04:56;96421.75;;;15.26;56.23
58367;BME280;57745;42.524;12.052;2023-03-22T06:07:21;96423.28;;;15.55;55.38
58367;BME280;57745;42.524;12.052;2023-03-22T06:09:47;96417.50;;;15.25;56.14
58367;BME280;57745;42.524;12.052;2023-03-22T06:12:15;96415.09;;;15.18;56.61
58367;BME280;57745;42.524;12.052;2023-03-22T06:14:41;96423.88;;;15.40;55.95
58367;BME280;57745;42.524;12.052;2023-03-22T06:17:07;96425.09;;;15.12;56.57
58367;BME280;57745;42.524;12.052;2023-03-22T06:19:33;96426.91;;;15.24;56.22
58367;BME280;57745;42.524;12.052;2023-03-22T06:21:59;96424.78;;;15.56;55.45
58367;BME280;57745;42.524;12.052;2023-03-22T06:24:24;96424.19;;;15.42;55.82
58367;BME280;57745;42.524;12.052;2023-03-22T06:26:50;96427.34;;;15.50;55.60
58367;BME280;57745;42.524;12.052;2023-03-22T06:29:15;96428.09;;;15.69;55.08
58367;BME280;57745;42.524;12.052;2023-03-22T06:31:41;96435.53;;;15.50;55.55
58367;BME280;57745;42.524;12.052;2023-03-22T06:34:06;96439.34;;;15.53;55.50
58367;BME280;57745;42.524;12.052;2023-03-22T06:36:32;96437.38;;;15.53;55.63
58367;BME280;57745;42.524;12.052;2023-03-22T06:38:57;96438.28;;;15.23;56.51
58367;BME280;57745;42.524;12.052;2023-03-22T06:41:25;96443.91;;;15.37;56.39
58367;BME280;57745;42.524;12.052;2023-03-22T06:43:50;96444.81;;;15.43;55.98
58367;BME280;57745;42.524;12.052;2023-03-22T06:46:16;96453.66;;;15.57;55.86
58367;BME280;57745;42.524;12.052;2023-03-22T06:48:41;96450.91;;;15.57;55.77
58367;BME280;57745;42.524;12.052;2023-03-22T06:51:07;96453.91;;;15.59;56.09
58367;BME280;57745;42.524;12.052;2023-03-22T06:53:33;96449.66;;;15.67;55.99
58367;BME280;57745;42.524;12.052;2023-03-22T06:55:59;96457.81;;;15.85;55.39
58367;BME280;57745;42.524;12.052;2023-03-22T06:58:25;96449.91;;;15.87;55.74
58367;BME280;57745;42.524;12.052;2023-03-22T07:00:51;96458.13;;;15.87;55.24
58367;BME280;57745;42.524;12.052;2023-03-22T07:03:17;96454.31;;;15.94;54.90
58367;BME280;57745;42.524;12.052;2023-03-22T07:05:42;96456.44;;;15.90;55.10
58367;BME280;57745;42.524;12.052;2023-03-22T07:08:08;96462.78;;;15.96;54.81
58367;BME280;57745;42.524;12.052;2023-03-22T07:10:34;96465.91;;;15.79;55.51
58367;BME280;57745;42.524;12.052;2023-03-22T07:13:00;96460.72;;;15.72;55.61
58367;BME280;57745;42.524;12.052;2023-03-22T07:15:28;96462.22;;;15.92;54.81
58367;BME280;57745;42.524;12.052;2023-03-22T07:17:53;96467.22;;;15.84;55.01
58367;BME280;57745;42.524;12.052;2023-03-22T07:20:19;96473.63;;;15.90;55.10
58367;BME280;57745;42.524;12.052;2023-03-22T07:22:45;96469.66;;;15.91;54.94
58367;BME280;57745;42.524;12.052;2023-03-22T07:25:11;96469.31;;;15.98;54.76
58367;BME280;57745;42.524;12.052;2023-03-22T07:27:36;96476.19;;;15.85;55.15
58367;BME280;57745;42.524;12.052;2023-03-22T07:30:04;96467.19;;;16.02;54.59
58367;BME280;57745;42.524;12.052;2023-03-22T07:32:30;96469.78;;;15.97;54.84
58367;BME280;57745;42.524;12.052;2023-03-22T07:34:55;96479.66;;;16.03;54.65
58367;BME280;57745;42.524;12.052;2023-03-22T07:37:21;96475.75;;;15.86;54.90
58367;BME280;57745;42.524;12.052;2023-03-22T07:39:46;96475.25;;;15.97;55.06
58367;BME280;57745;42.524;12.052;2023-03-22T07:42:12;96487.56;;;16.01;54.95
58367;BME280;57745;42.524;12.052;2023-03-22T07:44:37;96482.50;;;16.09;54.55
58367;BME280;57745;42.524;12.052;2023-03-22T07:47:03;96473.91;;;15.92;55.25
58367;BME280;57745;42.524;12.052;2023-03-22T07:49:29;96478.13;;;16.02;55.20
58367;BME280;57745;42.524;12.052;2023-03-22T07:51:55;96477.06;;;16.00;55.69
58367;BME280;57745;42.524;12.052;2023-03-22T07:54:21;96482.44;;;15.94;55.96
58367;BME280;57745;42.524;12.052;2023-03-22T07:56:46;96484.19;;;16.15;55.17
58367;BME280;57745;42.524;12.052;2023-03-22T07:59:13;96483.06;;;16.22;55.09
58367;BME280;57745;42.524;12.052;2023-03-22T08:01:39;96481.09;;;16.23;55.28
58367;BME280;57745;42.524;12.052;2023-03-22T08:04:04;96484.13;;;16.25;55.29
58367;BME280;57745;42.524;12.052;2023-03-22T08:06:30;96483.91;;;15.95;56.10
58367;BME280;57745;42.524;12.052;2023-03-22T08:08:57;96479.97;;;15.96;56.02
58367;BME280;57745;42.524;12.052;2023-03-22T08:11:23;96482.78;;;16.20;55.31
58367;BME280;57745;42.524;12.052;2023-03-22T08:13:48;96486.00;;;16.19;55.66
58367;BME280;57745;42.524;12.052;2023-03-22T08:16:14;96490.19;;;15.87;56.86
58367;BME280;57745;42.524;12.052;2023-03-22T08:18:39;96493.06;;;16.34;54.99
58367;BME280;57745;42.524;12.052;2023-03-22T08:21:05;96498.72;;;16.22;55.13
58367;BME280;57745;42.524;12.052;2023-03-22T08:23:31;96488.31;;;16.44;54.62
58367;BME280;57745;42.524;12.052;2023-03-22T08:25:56;96492.28;;;16.34;54.57
58367;BME280;57745;42.524;12.052;2023-03-22T08:28:22;96496.84;;;16.37;54.68
58367;BME280;57745;42.524;12.052;2023-03-22T08:30:48;96495.78;;;16.43;54.78
58367;BME280;57745;42.524;12.052;2023-03-22T08:33:14;96495.88;;;16.49;54.55
58367;BME280;57745;42.524;12.052;2023-03-22T08:35:40;96494.38;;;16.48;54.37
58367;BME280;57745;42.524;12.052;2023-03-22T08:38:06;96494.50;;;16.53;54.04
58367;BME280;57745;42.524;12.052;2023-03-22T08:40:32;96500.16;;;16.50;54.41
58367;BME280;57745;42.524;12.052;2023-03-22T08:42:58;96498.69;;;16.40;55.25
58367;BME280;57745;42.524;12.052;2023-03-22T08:45:24;96505.88;;;16.28;55.60
58367;BME280;57745;42.524;12.052;2023-03-22T08:47:49;96494.97;;;16.52;54.51
58367;BME280;57745;42.524;12.052;2023-03-22T08:50:15;96502.72;;;16.53;54.46
58367;BME280;57745;42.524;12.052;2023-03-22T08:52:41;96504.53;;;16.57;54.50
58367;BME280;57745;42.524;12.052;2023-03-22T08:55:08;96503.13;;;16.61;54.65
58367;BME280;57745;42.524;12.052;2023-03-22T08:57:35;96501.94;;;16.62;54.59
58367;BME280;57745;42.524;12.052;2023-03-22T09:00:01;96504.81;;;16.68;54.08
58367;BME280;57745;42.524;12.052;2023-03-22T09:02:28;96505.28;;;16.57;55.22
58367;BME280;57745;42.524;12.052;2023-03-22T09:04:53;96501.06;;;16.47;55.81
58367;BME280;57745;42.524;12.052;2023-03-22T09:07:19;96500.75;;;16.45;55.84
58367;BME280;57745;42.524;12.052;2023-03-22T09:09:45;96485.75;;;16.40;56.36
58367;BME280;57745;42.524;12.052;2023-03-22T09:12:11;96492.53;;;16.54;56.10
58367;BME280;57745;42.524;12.052;2023-03-22T09:14:36;96496.03;;;16.55;56.05
58367;BME280;57745;42.524;12.052;2023-03-22T09:17:02;96494.91;;;16.61;55.70
58367;BME280;57745;42.524;12.052;2023-03-22T09:19:28;96494.66;;;16.50;56.24
58367;BME280;57745;42.524;12.052;2023-03-22T09:21:53;96494.50;;;16.63;56.05
58367;BME280;57745;42.524;12.052;2023-03-22T09:24:20;96498.13;;;16.69;55.72
58367;BME280;57745;42.524;12.052;2023-03-22T09:26:46;96500.84;;;16.69;55.49
58367;BME280;57745;42.524;12.052;2023-03-22T09:29:12;96496.75;;;16.64;55.65
58367;BME280;57745;42.524;12.052;2023-03-22T09:31:38;96508.25;;;16.77;55.18
58367;BME280;57745;42.524;12.052;2023-03-22T09:34:03;96503.78;;;16.89;54.75
58367;BME280;57745;42.524;12.052;2023-03-22T09:36:29;96501.88;;;16.71;54.83
58367;BME280;57745;42.524;12.052;2023-03-22T09:38:57;96499.75;;;16.75;54.66
58367;BME280;57745;42.524;12.052;2023-03-22T09:41:35;96508.25;;;16.77;54.61
58367;BME280;57745;42.524;12.052;2023-03-22T09:44:05;96509.25;;;16.56;55.31
58367;BME280;57745;42.524;12.052;2023-03-22T09:46:38;96502.78;;;16.77;54.89
58367;BME280;57745;42.524;12.052;2023-03-22T09:49:11;96498.38;;;16.71;55.52
58367;BME280;57745;42.524;12.052;2023-03-22T09:51:40;96492.91;;;16.71;55.51
58367;BME280;57745;42.524;12.052;2023-03-22T09:54:13;96490.31;;;16.76;55.18
58367;BME280;57745;42.524;12.052;2023-03-22T09:56:39;96492.22;;;16.85;54.99
58367;BME280;57745;42.524;12.052;2023-03-22T09:59:14;96484.38;;;17.02;54.57
58367;BME280;57745;42.524;12.052;2023-03-22T10:04:42;96489.94;;;16.83;55.47
58367;BME280;57745;42.524;12.052;2023-03-22T10:12:29;96486.94;;;17.05;55.23
58367;BME280;57745;42.524;12.052;2023-03-22T10:15:07;96484.44;;;16.93;55.88
58367;BME280;57745;42.524;12.052;2023-03-22T10:17:38;96480.41;;;17.03;56.05
58367;BME280;57745;42.524;12.052;2023-03-22T10:23:19;96473.41;;;17.02;55.92
58367;BME280;57745;42.524;12.052;2023-03-22T10:25:49;96480.03;;;17.10;55.83
58367;BME280;57745;42.524;12.052;2023-03-22T10:28:25;96472.53;;;16.96;56.39
58367;BME280;57745;42.524;12.052;2023-03-22T10:30:54;96463.06;;;16.97;56.40
58367;BME280;57745;42.524;12.052;2023-03-22T10:33:41;96468.03;;;16.83;56.91
58367;BME280;57745;42.524;12.052;2023-03-22T10:36:16;96467.50;;;16.94;56.59
58367;BME280;57745;42.524;12.052;2023-03-22T10:38:49;96468.97;;;17.04;56.43
58367;BME280;57745;42.524;12.052;2023-03-22T10:41:19;96471.59;;;16.99;56.36
58367;BME280;57745;42.524;12.052;2023-03-22T10:43:49;96460.84;;;17.10;56.13
58367;BME280;57745;42.524;12.052;2023-03-22T10:46:22;96462.53;;;17.07;56.36
58367;BME280;57745;42.524;12.052;2023-03-22T10:48:50;96464.03;;;16.94;57.16
58367;BME280;57745;42.524;12.052;2023-03-22T10:53:47;96457.91;;;16.99;56.85
58367;BME280;57745;42.524;12.052;2023-03-22T10:56:15;96459.03;;;17.07;56.50
58367;BME280;57745;42.524;12.052;2023-03-22T10:58:43;96463.97;;;17.03;56.53
58367;BME280;57745;42.524;12.052;2023-03-22T11:01:13;96469.16;;;17.01;56.98
58367;BME280;57745;42.524;12.052;2023-03-22T11:03:43;96459.03;;;17.07;56.56
58367;BME280;57745;42.524;12.052;2023-03-22T11:08:48;96471.19;;;17.15;56.05
58367;BME280;57745;42.524;12.052;2023-03-22T11:11:21;96453.69;;;17.12;55.90
58367;BME280;57745;42.524;12.052;2023-03-22T11:14:00;96451.75;;;17.28;55.12
58367;BME280;57745;42.524;12.052;2023-03-22T11:16:28;96459.50;;;17.29;55.30
58367;BME280;57745;42.524;12.052;2023-03-22T11:18:56;96461.00;;;17.30;55.34
58367;BME280;57745;42.524;12.052;2023-03-22T11:21:27;96463.63;;;17.24;54.35
58367;BME280;57745;42.524;12.052;2023-03-22T11:23:57;96458.78;;;17.05;54.09
58367;BME280;57745;42.524;12.052;2023-03-22T11:26:26;96460.25;;;17.30;53.19
58367;BME280;57745;42.524;12.052;2023-03-22T11:29:01;96461.66;;;17.25;52.07
58367;BME280;57745;42.524;12.052;2023-03-22T11:31:47;96452.56;;;17.19;51.96
58367;BME280;57745;42.524;12.052;2023-03-22T11:34:18;96450.22;;;17.27;50.76
58367;BME280;57745;42.524;12.052;2023-03-22T11:36:46;96453.81;;;17.18;51.04
58367;BME280;57745;42.524;12.052;2023-03-22T11:39:16;96453.97;;;17.14;50.32
58367;BME280;57745;42.524;12.052;2023-03-22T11:41:44;96454.94;;;17.26;50.70
58367;BME280;57745;42.524;12.052;2023-03-22T11:44:13;96443.78;;;17.15;50.58
58367;BME280;57745;42.524;12.052;2023-03-22T11:46:54;96442.25;;;17.14;50.10
58367;BME280;57745;42.524;12.052;2023-03-22T11:49:24;96438.31;;;17.30;49.41
58367;BME280;57745;42.524;12.052;2023-03-22T11:51:52;96431.22;;;17.23;49.06
58367;BME280;57745;42.524;12.052;2023-03-22T11:54:29;96446.06;;;17.31;48.97
58367;BME280;57745;42.524;12.052;2023-03-22T11:57:02;96442.47;;;17.25;48.44
58367;BME280;57745;42.524;12.052;2023-03-22T12:00:22;96448.88;;;17.22;48.80
58367;BME280;57745;42.524;12.052;2023-03-22T12:03:03;96436.41;;;17.21;48.11
58367;BME280;57745;42.524;12.052;2023-03-22T12:05:32;96434.88;;;17.20;47.72
58367;BME280;57745;42.524;12.052;2023-03-22T12:10:44;96428.88;;;17.31;48.58
58367;BME280;57745;42.524;12.052;2023-03-22T12:13:22;96428.28;;;17.27;47.95
58367;BME280;57745;42.524;12.052;2023-03-22T12:15:53;96422.69;;;17.21;48.18
58367;BME280;57745;42.524;12.052;2023-03-22T12:18:26;96423.28;;;17.25;48.41
58367;BME280;57745;42.524;12.052;2023-03-22T12:20:59;96419.09;;;17.15;47.77
58367;BME280;57745;42.524;12.052;2023-03-22T12:23:30;96422.16;;;17.17;48.37
58367;BME280;57745;42.524;12.052;2023-03-22T12:28:39;96411.94;;;17.32;48.36
58367;BME280;57745;42.524;12.052;2023-03-22T12:31:06;96419.41;;;17.17;48.19
58367;BME280;57745;42.524;12.052;2023-03-22T12:33:59;96413.16;;;17.31;48.19
58367;BME280;57745;42.524;12.052;2023-03-22T12:39:05;96409.59;;;17.25;48.48
58367;BME280;57745;42.524;12.052;2023-03-22T12:41:40;96411.94;;;17.17;48.48
58367;BME280;57745;42.524;12.052;2023-03-22T12:44:28;96405.06;;;17.37;48.22
58367;BME280;57745;42.524;12.052;2023-03-22T12:47:14;96402.41;;;17.28;48.48
58367;BME280;57745;42.524;12.052;2023-03-22T12:50:04;96400.22;;;17.32;48.49
58367;BME280;57745;42.524;12.052;2023-03-22T12:52:45;96405.03;;;17.22;49.01
58367;BME280;57745;42.524;12.052;2023-03-22T12:55:35;96403.16;;;17.28;48.84
58367;BME280;57745;42.524;12.052;2023-03-22T12:58:06;96393.59;;;17.23;48.76
58367;BME280;57745;42.524;12.052;2023-03-22T13:00:53;96395.22;;;17.30;48.81
58367;BME280;57745;42.524;12.052;2023-03-22T13:06:05;96390.69;;;17.27;48.28
58367;BME280;57745;42.524;12.052;2023-03-22T13:11:26;96394.72;;;17.32;48.36
58367;BME280;57745;42.524;12.052;2023-03-22T13:13:52;96393.72;;;17.29;48.74
58367;BME280;57745;42.524;12.052;2023-03-22T13:16:19;96394.94;;;17.28;48.79
58367;BME280;57745;42.524;12.052;2023-03-22T13:21:20;96399.00;;;17.33;48.10
58367;BME280;57745;42.524;12.052;2023-03-22T13:26:18;96404.28;;;17.21;48.72
58367;BME280;57745;42.524;12.052;2023-03-22T13:28:54;96393.97;;;17.31;48.09
58367;BME280;57745;42.524;12.052;2023-03-22T13:31:34;96385.66;;;17.26;49.69
58367;BME280;57745;42.524;12.052;2023-03-22T13:34:01;96389.06;;;17.35;50.51
58367;BME280;57745;42.524;12.052;2023-03-22T13:36:30;96383.88;;;17.37;49.34
58367;BME280;57745;42.524;12.052;2023-03-22T13:39:00;96384.63;;;17.38;50.20
58367;BME280;57745;42.524;12.052;2023-03-22T13:41:33;96380.38;;;17.37;52.25
58367;BME280;57745;42.524;12.052;2023-03-22T13:44:01;96374.03;;;17.45;52.96
58367;BME280;57745;42.524;12.052;2023-03-22T13:51:29;96369.81;;;17.30;55.84
58367;BME280;57745;42.524;12.052;2023-03-22T13:54:17;96374.25;;;17.42;55.38
58367;BME280;57745;42.524;12.052;2023-03-22T13:56:56;96380.66;;;17.24;57.03
58367;BME280;57745;42.524;12.052;2023-03-22T14:02:31;96374.31;;;17.47;56.35
58367;BME280;57745;42.524;12.052;2023-03-22T14:05:15;96366.78;;;17.28;57.00
58367;BME280;57745;42.524;12.052;2023-03-22T14:07:46;96372.63;;;17.35;56.35
58367;BME280;57745;42.524;12.052;2023-03-22T14:10:38;96369.53;;;17.42;56.37
58367;BME280;57745;42.524;12.052;2023-03-22T14:13:24;96364.69;;;17.37;56.29
58367;BME280;57745;42.524;12.052;2023-03-22T14:15:56;96357.03;;;17.41;56.10